createdAt,value
2022-08-28T00:00:28.528Z,101252.34
2022-08-28T00:03:06.744Z,101252.63
2022-08-28T00:05:34.181Z,101253.06
2022-08-28T00:08:01.597Z,101252.06
2022-08-28T00:10:29.199Z,101248.00
2022-08-28T00:12:57.619Z,101253.75
2022-08-28T00:15:27.582Z,101252.06
2022-08-28T00:17:54.682Z,101249.25
2022-08-28T00:20:23.425Z,101248.84
2022-08-28T00:22:50.537Z,101248.28
2022-08-28T00:25:18.258Z,101244.66
2022-08-28T00:27:55.456Z,101249.97
2022-08-28T00:30:27.948Z,101252.91
2022-08-28T00:32:56.902Z,101255.03
2022-08-28T00:35:24.486Z,101252.38
2022-08-28T00:37:52.424Z,101261.19
2022-08-28T00:40:30.580Z,101254.72
2022-08-28T00:43:00.629Z,101253.75
2022-08-28T00:45:28.223Z,101248.13
2022-08-28T00:47:55.082Z,101246.72
2022-08-28T00:50:23.794Z,101243.38
2022-08-28T00:52:53.453Z,101248.00
2022-08-28T00:55:22.535Z,101251.78
2022-08-28T00:57:51.806Z,101249.13
2022-08-28T01:00:25.005Z,101247.44
2022-08-28T01:02:52.205Z,101245.59
2022-08-28T01:05:19.714Z,101248.41
2022-08-28T01:07:47.190Z,101244.91
2022-08-28T01:10:16.323Z,101250.38
2022-08-28T01:12:44.137Z,101249.25
2022-08-28T01:15:13.921Z,101251.06
2022-08-28T01:17:43.503Z,101253.47
2022-08-28T01:20:13.887Z,101250.25
2022-08-28T01:22:45.725Z,101243.78
2022-08-28T01:25:14.757Z,101247.72
2022-08-28T01:27:42.167Z,101251.09
2022-08-28T01:30:14.867Z,101251.78
2022-08-28T01:32:44.482Z,101252.78
2022-08-28T01:35:14.298Z,101251.09
2022-08-28T01:37:42.337Z,101251.22
2022-08-28T01:40:10.760Z,101252.06
2022-08-28T01:42:41.006Z,101249.69
2022-08-28T01:45:11.396Z,101254.03
2022-08-28T01:47:39.555Z,101255.44
2022-08-28T01:50:08.048Z,101248.00
2022-08-28T01:52:36.522Z,101256.41
2022-08-28T01:55:05.243Z,101249.38
2022-08-28T01:57:32.519Z,101252.06
2022-08-28T02:00:00.329Z,101247.88
2022-08-28T02:02:27.490Z,101252.47
2022-08-28T02:04:54.395Z,101254.31
2022-08-28T02:07:21.474Z,101248.97
2022-08-28T02:09:48.716Z,101250.94
2022-08-28T02:12:16.071Z,101250.25
2022-08-28T02:14:42.938Z,101249.81
2022-08-28T02:17:11.148Z,101256.13
2022-08-28T02:19:38.241Z,101249.09
2022-08-28T02:22:08.516Z,101249.25
2022-08-28T02:24:35.983Z,101249.56
2022-08-28T02:27:04.602Z,101248.97
2022-08-28T02:29:31.481Z,101251.63
2022-08-28T02:31:59.134Z,101245.47
2022-08-28T02:34:26.118Z,101248.28
2022-08-28T02:36:53.144Z,101243.09
2022-08-28T02:39:20.481Z,101246.16
2022-08-28T02:41:47.378Z,101247.03
2022-08-28T02:44:14.259Z,101246.16
2022-08-28T02:46:41.624Z,101248.69
2022-08-28T02:49:08.723Z,101244.06
2022-08-28T02:51:35.658Z,101243.38
2022-08-28T02:54:02.970Z,101250.38
2022-08-28T02:56:30.531Z,101240.28
2022-08-28T02:58:58.559Z,101247.59
2022-08-28T03:01:25.731Z,101254.56
2022-08-28T03:03:52.953Z,101253.47
2022-08-28T03:06:19.857Z,101248.41
2022-08-28T03:08:47.042Z,101253.44
2022-08-28T03:11:14.147Z,101246.72
2022-08-28T03:13:42.265Z,101251.91
2022-08-28T03:16:09.677Z,101252.34
2022-08-28T03:18:37.358Z,101257.53
2022-08-28T03:21:04.415Z,101267.63
2022-08-28T03:23:31.949Z,101254.31
2022-08-28T03:26:01.987Z,101265.25
2022-08-28T03:28:30.703Z,101262.56
2022-08-28T03:30:58.318Z,101266.75
2022-08-28T03:33:26.415Z,101261.84
2022-08-28T03:35:54.017Z,101263.53
2022-08-28T03:38:22.086Z,101266.50
2022-08-28T03:40:49.182Z,101260.19
2022-08-28T03:43:18.171Z,101260.88
2022-08-28T03:45:59.461Z,101259.63
2022-08-28T03:48:27.964Z,101262.72
2022-08-28T03:50:55.392Z,101263.41
2022-08-28T03:53:23.166Z,101265.81
2022-08-28T03:55:50.118Z,101271.97
2022-08-28T03:58:19.116Z,101268.03
2022-08-28T04:00:46.871Z,101275.03
2022-08-28T04:03:13.991Z,101279.13
2022-08-28T04:05:41.806Z,101278.97
2022-08-28T04:08:09.532Z,101284.84
2022-08-28T04:10:36.921Z,101283.72
2022-08-28T04:13:04.977Z,101287.81
2022-08-28T04:15:32.010Z,101289.63
2022-08-28T04:17:59.270Z,101290.47
2022-08-28T04:20:27.113Z,101283.91
2022-08-28T04:22:55.064Z,101296.91
2022-08-28T04:25:23.422Z,101292.31
2022-08-28T04:27:51.818Z,101293.81
2022-08-28T04:30:19.046Z,101294.97
2022-08-28T04:32:45.908Z,101289.19
2022-08-28T04:35:13.693Z,101294.50
2022-08-28T04:37:41.572Z,101291.84
2022-08-28T04:40:11.223Z,101296.06
2022-08-28T04:42:38.973Z,101297.50
2022-08-28T04:45:06.881Z,101298.59
2022-08-28T04:47:38.244Z,101301.94
2022-08-28T04:50:06.984Z,101300.81
2022-08-28T04:52:33.977Z,101304.03
2022-08-28T04:55:00.858Z,101304.06
2022-08-28T04:57:28.194Z,101304.19
2022-08-28T04:59:55.085Z,101312.88
2022-08-28T05:02:22.260Z,101318.50
2022-08-28T05:04:49.751Z,101318.91
2022-08-28T05:07:16.616Z,101315.13
2022-08-28T05:09:43.505Z,101318.75
2022-08-28T05:12:17.416Z,101312.59
2022-08-28T05:14:44.809Z,101314.03
2022-08-28T05:17:14.716Z,101318.63
2022-08-28T05:19:42.648Z,101317.06
2022-08-28T05:22:10.158Z,101320.03
2022-08-28T05:24:38.463Z,101320.19
2022-08-28T05:27:06.586Z,101326.53
2022-08-28T05:29:33.890Z,101321.06
2022-08-28T05:32:01.088Z,101331.41
2022-08-28T05:34:28.431Z,101323.13
2022-08-28T05:36:55.527Z,101326.94
2022-08-28T05:39:22.805Z,101329.31
2022-08-28T05:41:49.951Z,101324.81
2022-08-28T05:44:17.622Z,101329.00
2022-08-28T05:46:47.806Z,101329.47
2022-08-28T05:49:15.451Z,101326.06
2022-08-28T05:51:42.670Z,101327.06
2022-08-28T05:54:10.912Z,101327.63
2022-08-28T05:56:39.045Z,101328.31
2022-08-28T05:59:07.125Z,101325.78
2022-08-28T06:01:35.676Z,101326.25
2022-08-28T06:04:05.603Z,101336.19
2022-08-28T06:06:34.557Z,101331.16
2022-08-28T06:09:04.184Z,101336.50
2022-08-28T06:11:31.582Z,101338.88
2022-08-28T06:14:02.540Z,101339.28
2022-08-28T06:16:31.499Z,101338.03
2022-08-28T06:18:58.646Z,101339.59
2022-08-28T06:21:25.944Z,101340.56
2022-08-28T06:23:53.378Z,101340.00
2022-08-28T06:26:20.486Z,101341.72
2022-08-28T06:28:47.465Z,101344.50
2022-08-28T06:31:23.522Z,101348.44
2022-08-28T06:33:54.228Z,101352.94
2022-08-28T06:36:22.330Z,101346.63
2022-08-28T06:38:49.271Z,101347.19
2022-08-28T06:41:16.895Z,101342.13
2022-08-28T06:43:44.324Z,101343.97
2022-08-28T06:46:11.340Z,101355.53
2022-08-28T06:48:38.388Z,101357.34
2022-08-28T06:51:06.463Z,101359.84
2022-08-28T06:53:33.699Z,101358.59
2022-08-28T06:56:03.187Z,101361.00
2022-08-28T06:58:31.330Z,101370.25
2022-08-28T07:01:18.312Z,101372.09
2022-08-28T07:03:45.830Z,101373.91
2022-08-28T07:06:13.903Z,101371.50
2022-08-28T07:08:41.647Z,101377.25
2022-08-28T07:11:19.273Z,101380.09
2022-08-28T07:13:46.336Z,101381.19
2022-08-28T07:16:14.789Z,101384.28
2022-08-28T07:18:42.151Z,101388.75
2022-08-28T07:21:12.357Z,101386.53
2022-08-28T07:23:40.699Z,101386.66
2022-08-28T07:26:09.061Z,101390.16
2022-08-28T07:28:36.409Z,101389.44
2022-08-28T07:31:05.180Z,101399.59
2022-08-28T07:33:33.349Z,101393.53
2022-08-28T07:36:01.277Z,101397.75
2022-08-28T07:38:28.710Z,101399.03
2022-08-28T07:40:55.806Z,101402.25
2022-08-28T07:43:41.159Z,101407.72
2022-08-28T07:46:09.889Z,101417.00
2022-08-28T07:48:37.502Z,101414.31
2022-08-28T07:51:05.145Z,101414.19
2022-08-28T07:53:36.382Z,101409.81
2022-08-28T07:56:04.272Z,101408.56
2022-08-28T07:58:31.474Z,101411.25
2022-08-28T08:00:59.129Z,101412.50
2022-08-28T08:03:26.096Z,101407.16
2022-08-28T08:06:02.261Z,101413.56
2022-08-28T08:08:31.962Z,101402.94
2022-08-28T08:11:06.036Z,101409.38
2022-08-28T08:13:33.920Z,101414.19
2022-08-28T08:16:11.273Z,101411.13
2022-08-28T08:18:39.469Z,101414.59
2022-08-28T08:21:07.500Z,101407.50
2022-08-28T08:23:35.393Z,101415.63
2022-08-28T08:26:05.376Z,101416.56
2022-08-28T08:28:34.668Z,101414.75
2022-08-28T08:31:09.857Z,101420.78
2022-08-28T08:33:38.796Z,101421.84
2022-08-28T08:36:07.374Z,101429.44
2022-08-28T08:38:34.722Z,101425.91
2022-08-28T08:41:03.031Z,101422.69
2022-08-28T08:43:31.756Z,101428.56
2022-08-28T08:45:58.995Z,101427.72
2022-08-28T08:48:31.687Z,101424.00
2022-08-28T08:51:03.695Z,101425.31
2022-08-28T08:53:39.294Z,101433.28
2022-08-28T08:56:06.598Z,101437.09
2022-08-28T08:58:34.184Z,101436.06
2022-08-28T09:01:04.623Z,101439.94
2022-08-28T09:03:48.642Z,101440.84
2022-08-28T09:06:31.479Z,101445.06
2022-08-28T09:09:00.196Z,101442.28
2022-08-28T09:11:43.070Z,101450.84
2022-08-28T09:14:14.337Z,101449.19
2022-08-28T09:16:46.162Z,101446.34
2022-08-28T09:19:18.721Z,101446.19
2022-08-28T09:21:48.997Z,101447.38
2022-08-28T09:24:30.772Z,101444.34
2022-08-28T09:27:02.300Z,101447.84
2022-08-28T09:29:36.479Z,101453.81
2022-08-28T09:32:26.830Z,101445.56
2022-08-28T09:35:08.601Z,101445.06
2022-08-28T09:37:36.840Z,101445.78
2022-08-28T09:40:22.244Z,101445.47
2022-08-28T09:43:20.753Z,101447.94
2022-08-28T09:45:54.705Z,101443.66
2022-08-28T09:48:31.793Z,101447.66
2022-08-28T09:51:12.041Z,101435.31
2022-08-28T09:53:57.505Z,101434.75
2022-08-28T09:56:30.009Z,101436.22
2022-08-28T09:59:09.760Z,101443.50
2022-08-28T10:01:40.700Z,101454.53
2022-08-28T10:04:41.602Z,101442.19
2022-08-28T10:07:18.594Z,101443.47
2022-08-28T10:09:49.662Z,101450.13
2022-08-28T10:12:16.522Z,101441.22
2022-08-28T10:14:43.443Z,101457.06
2022-08-28T10:17:10.528Z,101437.22
2022-08-28T10:19:43.743Z,101441.38
2022-08-28T10:22:20.182Z,101443.22
2022-08-28T10:24:59.739Z,101463.38
2022-08-28T10:27:36.019Z,101452.66
2022-08-28T10:30:12.976Z,101453.47
2022-08-28T10:32:42.755Z,101461.56
2022-08-28T10:35:29.190Z,101462.59
2022-08-28T10:38:11.175Z,101462.50
2022-08-28T10:41:09.131Z,101464.66
2022-08-28T10:43:44.310Z,101459.97
2022-08-28T10:46:16.971Z,101466.44
2022-08-28T10:48:54.661Z,101458.47
2022-08-28T10:51:36.897Z,101457.31
2022-08-28T10:54:23.733Z,101456.69
2022-08-28T10:57:01.056Z,101463.09
2022-08-28T10:59:32.466Z,101464.75
2022-08-28T11:02:06.136Z,101473.59
2022-08-28T11:04:35.917Z,101462.72
2022-08-28T11:07:06.280Z,101464.31
2022-08-28T11:09:40.589Z,101459.44
2022-08-28T11:12:17.874Z,101459.28
2022-08-28T11:14:48.441Z,101471.38
2022-08-28T11:17:22.725Z,101472.75
2022-08-28T11:19:57.550Z,101473.06
2022-08-28T11:22:27.519Z,101474.13
2022-08-28T11:25:13.018Z,101479.28
2022-08-28T11:27:41.807Z,101475.75
2022-08-28T11:30:11.468Z,101478.59
2022-08-28T11:32:55.634Z,101472.44
2022-08-28T11:35:29.996Z,101466.81
2022-08-28T11:37:58.954Z,101469.19
2022-08-28T11:40:32.119Z,101461.84
2022-08-28T11:43:20.869Z,101471.47
2022-08-28T11:45:48.245Z,101463.41
2022-08-28T11:48:33.706Z,101467.53
2022-08-28T11:51:04.278Z,101471.69
2022-08-28T11:53:51.332Z,101471.66
2022-08-28T11:56:30.977Z,101471.41
2022-08-28T11:59:19.739Z,101471.84
2022-08-28T12:01:49.694Z,101479.19
2022-08-28T12:04:23.983Z,101473.03
2022-08-28T14:09:00.154Z,101483.31
2022-08-28T14:11:27.489Z,101490.53
2022-08-28T14:13:55.526Z,101499.97
2022-08-28T14:16:24.065Z,101495.31
2022-08-28T14:18:53.053Z,101494.66
2022-08-28T14:21:20.305Z,101493.31
2022-08-28T14:23:47.380Z,101488.09
2022-08-28T14:26:14.559Z,101487.25
2022-08-28T14:28:42.658Z,101489.63
2022-08-28T14:31:14.286Z,101487.94
2022-08-28T14:33:42.520Z,101494.31
2022-08-28T14:36:17.040Z,101496.00
2022-08-28T14:38:44.245Z,101488.94
2022-08-28T14:41:12.317Z,101489.09
2022-08-28T14:43:39.416Z,101488.56
2022-08-28T14:46:11.434Z,101487.22
2022-08-28T14:48:38.702Z,101484.88
2022-08-28T14:51:06.557Z,101481.88
2022-08-28T14:53:33.671Z,101491.78
2022-08-28T14:56:00.663Z,101483.56
2022-08-28T14:58:27.925Z,101484.53
2022-08-28T15:00:55.339Z,101486.34
2022-08-28T15:03:22.710Z,101491.88
2022-08-28T15:06:00.162Z,101489.19
2022-08-28T15:08:27.608Z,101487.50
2022-08-28T15:10:55.360Z,101490.34
2022-08-28T15:13:22.969Z,101508.63
2022-08-28T15:15:50.154Z,101495.22
2022-08-28T15:18:17.557Z,101493.53
2022-08-28T15:20:45.836Z,101495.22
2022-08-28T15:23:14.071Z,101495.50
2022-08-28T15:25:41.870Z,101505.38
2022-08-28T15:28:09.115Z,101509.53
2022-08-28T15:30:36.917Z,101502.75
2022-08-28T15:33:04.278Z,101501.38
2022-08-28T15:35:31.873Z,101503.38
2022-08-28T15:37:58.879Z,101506.06
2022-08-28T15:40:44.614Z,101507.06
2022-08-28T15:43:11.623Z,101511.13
2022-08-28T15:45:39.308Z,101508.59
2022-08-28T15:48:06.588Z,101511.94
2022-08-28T15:50:34.021Z,101518.16
2022-08-28T15:53:01.695Z,101515.09
2022-08-28T15:55:28.660Z,101518.31
2022-08-28T15:57:56.345Z,101520.41
2022-08-28T16:00:23.294Z,101520.50
2022-08-28T16:02:50.254Z,101521.56
2022-08-28T16:05:17.654Z,101527.59
2022-08-28T16:07:45.302Z,101527.22
2022-08-28T16:10:13.914Z,101524.91
2022-08-28T16:12:41.316Z,101525.59
2022-08-28T16:15:08.949Z,101517.19
2022-08-28T16:17:36.353Z,101528.13
2022-08-28T16:20:06.657Z,101525.78
2022-08-28T16:22:39.802Z,101516.91
2022-08-28T16:25:07.643Z,101520.56
2022-08-28T16:27:34.797Z,101525.75
2022-08-28T16:30:04.300Z,101525.75
2022-08-28T16:32:31.625Z,101522.03
2022-08-28T16:34:58.559Z,101526.69
2022-08-28T16:37:26.450Z,101527.09
2022-08-28T16:40:08.936Z,101530.09
